createdAt,value
2023-04-03T00:02:46.567Z,4.7
2023-04-03T00:08:30.779Z,4.7
2023-04-03T00:14:14.768Z,4.8
2023-04-03T00:19:58.900Z,4.9
2023-04-03T00:25:43.015Z,4.5
2023-04-03T00:31:27.263Z,4.6
2023-04-03T00:37:11.516Z,4.6
2023-04-03T00:42:58.632Z,4.7
2023-04-03T00:48:43.918Z,4.8
2023-04-03T00:54:28.389Z,4.6
2023-04-03T01:00:13.942Z,4.6
2023-04-03T01:05:58.033Z,4.7
2023-04-03T01:11:42.078Z,4.8
2023-04-03T01:17:34.749Z,4.8
2023-04-03T01:23:25.074Z,4.6
2023-04-03T01:29:10.048Z,4.8
2023-04-03T01:34:54.056Z,4.5
2023-04-03T01:40:38.836Z,4.5
2023-04-03T01:46:23.489Z,4.6
2023-04-03T01:52:07.565Z,4.6
2023-04-03T01:57:51.659Z,4.3
2023-04-03T02:03:35.709Z,4.6
2023-04-03T02:09:20.031Z,5
2023-04-03T02:15:04.003Z,4.8
2023-04-03T02:20:49.318Z,4.8
2023-04-03T02:26:33.392Z,4.8
2023-04-03T02:32:17.323Z,4.5
2023-04-03T02:38:01.225Z,4.3
2023-04-03T02:43:45.223Z,4.2
2023-04-03T02:49:29.257Z,4.2
2023-04-03T02:55:16.561Z,4.3
2023-04-03T03:01:00.767Z,4.5
2023-04-03T03:06:46.879Z,4.2
2023-04-03T03:12:33.380Z,4.2
2023-04-03T03:18:17.577Z,4.5
2023-04-03T03:24:01.536Z,4.3
2023-04-03T03:29:45.532Z,4.4
2023-04-03T03:35:30.289Z,5
2023-04-03T03:41:15.335Z,4.5
2023-04-03T03:47:00.248Z,4.6
2023-04-03T03:52:45.502Z,4.4
2023-04-03T03:58:30.343Z,4
2023-04-03T04:04:15.341Z,4.2
2023-04-03T04:10:00.196Z,4.3
2023-04-03T04:15:45.361Z,4.4
2023-04-03T04:21:30.173Z,4.1
2023-04-03T04:27:15.301Z,4.3
2023-04-03T04:33:00.231Z,4.4
2023-04-03T04:38:45.664Z,4.2
2023-04-03T04:44:30.537Z,4.1
2023-04-03T04:50:16.218Z,4.5
2023-04-03T04:56:01.045Z,4.4
2023-04-03T05:01:45.516Z,4.2
2023-04-03T05:07:29.535Z,4.2
2023-04-03T05:13:13.428Z,4.3
2023-04-03T05:18:57.395Z,4.3
2023-04-03T05:24:41.395Z,4.3
2023-04-03T05:30:25.625Z,4.5
2023-04-03T05:36:10.980Z,4.9
2023-04-03T05:41:55.539Z,4.6
2023-04-03T05:47:39.788Z,4.4
2023-04-03T05:53:25.228Z,4.5
2023-04-03T05:59:09.371Z,4.5
2023-04-03T06:04:54.375Z,4.5
2023-04-03T06:10:39.434Z,5.2
2023-04-03T06:16:28.992Z,6
2023-04-03T06:22:13.022Z,7.1
2023-04-03T06:27:57.028Z,7.5
2023-04-03T06:33:41.969Z,7.3
2023-04-03T06:39:26.138Z,7.4
2023-04-03T06:45:10.916Z,7.3
2023-04-03T06:50:55.974Z,7.3
2023-04-03T06:56:40.049Z,7.1
2023-04-03T07:02:24.454Z,7.7
2023-04-03T07:08:08.486Z,8.2
2023-04-03T07:13:52.444Z,7
2023-04-03T07:19:36.499Z,6.4
2023-04-03T07:25:20.651Z,6.6
2023-04-03T07:31:07.091Z,6.9
2023-04-03T07:36:51.184Z,7
2023-04-03T07:42:35.316Z,7.6
2023-04-03T07:48:19.717Z,7
2023-04-03T07:54:03.768Z,6.8
2023-04-03T07:59:48.162Z,6.6
2023-04-03T08:05:32.351Z,6.6
2023-04-03T08:11:16.637Z,6.4
2023-04-03T08:17:07.298Z,5.8
2023-04-03T08:22:51.508Z,6.4
2023-04-03T08:28:35.662Z,5.7
2023-04-03T08:34:20.003Z,5.6
2023-04-03T08:40:04.231Z,5.9
2023-04-03T08:45:51.589Z,5.4
2023-04-03T08:51:35.761Z,5.3
2023-04-03T08:57:21.136Z,5.2
2023-04-03T09:03:05.242Z,5
2023-04-03T09:08:53.026Z,4.5
2023-04-03T09:14:40.435Z,4.4
2023-04-03T09:20:27.554Z,4.1
2023-04-03T09:26:16.529Z,4
2023-04-03T09:32:02.766Z,3.8
2023-04-03T09:37:47.535Z,3.5
2023-04-03T09:43:33.169Z,3
2023-04-03T09:49:17.154Z,3.3
2023-04-03T09:55:06.121Z,3.2
2023-04-03T10:00:55.137Z,2.7
2023-04-03T10:06:40.164Z,2.6
2023-04-03T10:12:25.175Z,2.6
2023-04-03T10:18:24.525Z,2.2
2023-04-03T10:24:13.334Z,2.4
2023-04-03T10:30:02.593Z,2.4
2023-04-03T10:35:53.600Z,1.9
2023-04-03T10:41:43.635Z,2.2
2023-04-03T10:47:28.854Z,2
2023-04-03T10:53:20.325Z,2
2023-04-03T10:59:08.912Z,2.2
2023-04-03T11:04:54.672Z,1.9
2023-04-03T11:10:40.910Z,2
2023-04-03T11:16:27.553Z,1.9
2023-04-03T11:22:19.211Z,1.9
2023-04-03T11:28:05.481Z,2
2023-04-03T11:33:54.675Z,1.8
2023-04-03T11:39:40.824Z,1.9
2023-04-03T11:45:41.314Z,1.8
2023-04-03T11:51:37.237Z,1.7
2023-04-03T11:57:40.989Z,1.9
2023-04-03T12:03:46.101Z,2
2023-04-03T12:09:31.439Z,1.7
2023-04-03T12:15:29.998Z,1.7
2023-04-03T12:21:14.394Z,1.8
2023-04-03T12:27:03.331Z,1.8
2023-04-03T12:33:13.478Z,1.4
2023-04-03T12:39:04.462Z,1.3
2023-04-03T12:44:55.954Z,1.9
2023-04-03T12:50:40.046Z,5.5
2023-04-03T12:56:29.587Z,6.3
2023-04-03T13:02:23.669Z,3.8
2023-04-03T13:08:08.766Z,2.9
2023-04-03T13:14:01.808Z,2.7
2023-04-03T13:19:45.890Z,2.6
2023-04-03T13:25:32.865Z,2.4
2023-04-03T13:31:23.371Z,2.2
2023-04-03T13:37:07.769Z,2.1
2023-04-03T13:42:56.742Z,1.8
2023-04-03T13:48:44.913Z,1.9
2023-04-03T13:54:32.460Z,1.9
2023-04-03T14:00:39.593Z,1.9
2023-04-03T14:06:23.552Z,1.8
2023-04-03T14:12:24.619Z,1.5
2023-04-03T14:18:10.408Z,1.6
2023-04-03T14:23:54.557Z,1.5
2023-04-03T14:29:38.581Z,1.8
2023-04-03T14:35:22.875Z,1.5
2023-04-03T14:41:17.375Z,1.5
2023-04-03T14:47:02.537Z,1.4
2023-04-03T14:52:47.301Z,1.3
2023-04-03T14:58:31.348Z,1.3
2023-04-03T15:04:19.104Z,1.4
2023-04-03T15:10:04.856Z,1.4
2023-04-03T15:15:49.116Z,1.4
2023-04-03T15:21:33.234Z,1.3
2023-04-03T15:27:18.152Z,1.2
2023-04-03T15:33:02.185Z,1.3
2023-04-03T15:38:46.187Z,1.4
2023-04-03T15:44:30.277Z,1.4
2023-04-03T15:50:14.829Z,1.3
2023-04-03T15:55:59.001Z,1.3
2023-04-03T16:01:43.150Z,1.3
2023-04-03T16:07:28.754Z,1.4
2023-04-03T16:13:12.752Z,1.1
2023-04-03T16:18:57.156Z,1.2
2023-04-03T16:24:41.571Z,1.2
2023-04-03T16:30:25.773Z,1.1
2023-04-03T16:36:10.002Z,1.3
2023-04-03T16:41:53.923Z,1.4
2023-04-03T16:47:38.328Z,1.2
2023-04-03T16:53:22.464Z,1.2
2023-04-03T16:59:06.550Z,1.2
2023-04-03T17:04:53.032Z,1.3
2023-04-03T17:10:36.964Z,1.3
2023-04-03T17:16:21.097Z,1.6
2023-04-03T17:22:05.083Z,1.6
2023-04-03T17:27:49.339Z,2
2023-04-03T17:33:33.405Z,1.7
2023-04-03T17:39:18.545Z,1.3
2023-04-03T17:45:02.678Z,1.4
2023-04-03T17:50:46.685Z,1.8
2023-04-03T17:56:30.677Z,1.5
2023-04-03T18:02:14.727Z,1.6
2023-04-03T18:08:00.405Z,1.7
2023-04-03T18:13:44.634Z,1.7
2023-04-03T18:19:31.368Z,1.5
2023-04-03T18:25:16.798Z,1.4
2023-04-03T18:31:01.136Z,1.5
2023-04-03T18:36:45.238Z,1.4
2023-04-03T18:42:30.191Z,1.5
2023-04-03T18:48:14.749Z,1.6
2023-04-03T18:53:58.849Z,1.5
2023-04-03T18:59:42.879Z,1.5
2023-04-03T19:05:27.317Z,1.5
2023-04-03T19:11:11.367Z,1.6
2023-04-03T19:16:55.649Z,1.5
2023-04-03T19:22:40.146Z,1.4
2023-04-03T19:28:24.131Z,1.7
2023-04-03T19:34:08.746Z,1.5
2023-04-03T19:39:52.722Z,1.5
2023-04-03T19:45:36.832Z,1.4
2023-04-03T19:51:20.694Z,1.5
2023-04-03T19:57:04.790Z,1.5
2023-04-03T20:02:48.993Z,1.5
2023-04-03T20:08:33.070Z,1.5
2023-04-03T20:14:17.139Z,1.6
2023-04-03T20:20:01.449Z,1.5
2023-04-03T20:26:09.136Z,1.7
2023-04-03T20:31:52.041Z,1.7
2023-04-03T20:37:36.276Z,1.5
2023-04-03T20:43:20.103Z,1.7
2023-04-03T20:49:04.957Z,1.5
2023-04-03T20:54:49.076Z,1.8
2023-04-03T21:00:33.456Z,1.7
2023-04-03T21:06:28.720Z,1.7
2023-04-03T21:12:23.895Z,1.8
2023-04-03T21:18:23.610Z,1.7
2023-04-03T21:24:09.386Z,1.6
2023-04-03T21:29:53.433Z,1.6
2023-04-03T21:35:37.485Z,1.7
2023-04-03T21:41:21.390Z,1.6
2023-04-03T21:47:05.269Z,1.5
2023-04-03T21:52:49.301Z,1.8
2023-04-03T21:58:34.607Z,1.8
2023-04-03T22:04:18.715Z,1.7
2023-04-03T22:10:02.804Z,1.8
2023-04-03T22:15:48.861Z,1.8
2023-04-03T22:21:33.083Z,1.8
2023-04-03T22:27:17.155Z,1.7
2023-04-03T22:33:01.273Z,1.8
2023-04-03T22:38:45.385Z,2.2
2023-04-03T22:44:37.730Z,1.8
2023-04-03T22:50:21.856Z,2
2023-04-03T22:56:06.801Z,1.8
2023-04-03T23:01:50.743Z,2.1
2023-04-03T23:07:34.723Z,2.1
2023-04-03T23:13:18.854Z,1.9
2023-04-03T23:19:03.760Z,1.8
2023-04-03T23:24:52.834Z,1.9
2023-04-03T23:30:36.919Z,1.6
2023-04-03T23:36:21.290Z,1.7
2023-04-03T23:42:05.346Z,1.8
2023-04-03T23:47:49.473Z,2
2023-04-03T23:53:35.474Z,2
2023-04-03T23:59:19.680Z,1.9
